createdAt,value
2022-09-27T00:00:07.307Z,0
2022-09-27T00:03:07.669Z,0
2022-09-27T00:06:07.379Z,0
2022-09-27T00:09:07.290Z,0
2022-09-27T00:12:07.359Z,0
2022-09-27T00:15:07.379Z,0
2022-09-27T00:18:07.317Z,0
2022-09-27T00:21:07.345Z,0
2022-09-27T00:24:07.305Z,0
2022-09-27T00:27:07.316Z,0
2022-09-27T00:30:07.319Z,0
2022-09-27T00:33:07.341Z,0
2022-09-27T00:36:07.327Z,0
2022-09-27T00:39:08.330Z,0
2022-09-27T00:42:07.328Z,0
2022-09-27T00:45:07.288Z,0
2022-09-27T00:48:07.491Z,0
2022-09-27T00:51:07.427Z,0
2022-09-27T00:54:07.426Z,0
2022-09-27T00:57:07.351Z,0
2022-09-27T01:00:07.331Z,0
2022-09-27T01:03:07.645Z,0
2022-09-27T01:06:07.253Z,0
2022-09-27T01:09:07.336Z,0
2022-09-27T01:12:07.292Z,0
2022-09-27T01:15:07.364Z,0
2022-09-27T01:18:07.340Z,0
2022-09-27T01:21:07.539Z,0
2022-09-27T01:24:07.312Z,0
2022-09-27T01:27:07.294Z,0
2022-09-27T01:30:07.293Z,0
2022-09-27T01:33:07.293Z,0
2022-09-27T01:36:07.376Z,0
2022-09-27T01:39:07.369Z,0
2022-09-27T01:42:10.125Z,0
2022-09-27T01:45:07.231Z,0
2022-09-27T01:48:07.394Z,0
2022-09-27T01:51:07.291Z,0
2022-09-27T01:54:07.414Z,0
2022-09-27T01:57:07.322Z,0
2022-09-27T02:00:07.327Z,0
2022-09-27T02:03:07.843Z,0
2022-09-27T02:06:07.326Z,0
2022-09-27T02:09:07.313Z,0
2022-09-27T02:12:07.281Z,0
2022-09-27T02:15:07.337Z,0
2022-09-27T02:18:07.417Z,0
2022-09-27T02:21:07.271Z,0
2022-09-27T02:24:07.435Z,0
2022-09-27T02:27:07.350Z,0
2022-09-27T02:30:07.363Z,0
2022-09-27T02:33:07.338Z,0
2022-09-27T02:36:07.409Z,0
2022-09-27T02:39:07.349Z,0
2022-09-27T02:42:07.315Z,0
2022-09-27T02:45:07.275Z,0
2022-09-27T02:48:07.304Z,0
2022-09-27T02:51:07.264Z,0
2022-09-27T02:54:07.318Z,0
2022-09-27T02:57:07.305Z,0
2022-09-27T03:00:07.416Z,0
2022-09-27T03:03:07.679Z,0
2022-09-27T03:06:07.323Z,0
2022-09-27T03:09:07.300Z,0
2022-09-27T03:12:07.360Z,0
2022-09-27T03:15:07.275Z,0
2022-09-27T03:18:07.451Z,0
2022-09-27T03:21:07.325Z,0
2022-09-27T03:24:07.307Z,0
2022-09-27T03:27:07.381Z,0
2022-09-27T03:30:07.384Z,0
2022-09-27T03:33:07.376Z,0
2022-09-27T03:36:07.323Z,0
2022-09-27T03:39:07.362Z,0
2022-09-27T03:42:07.286Z,0
2022-09-27T03:45:07.325Z,0
2022-09-27T03:48:07.378Z,0
2022-09-27T03:51:07.374Z,0
2022-09-27T03:54:07.348Z,0
2022-09-27T03:57:07.298Z,0
2022-09-27T04:00:07.407Z,0
2022-09-27T04:03:07.357Z,0
2022-09-27T04:06:07.339Z,0
2022-09-27T04:09:07.369Z,0
2022-09-27T04:12:07.333Z,0
2022-09-27T04:15:07.530Z,0
2022-09-27T04:18:07.277Z,0
2022-09-27T04:21:07.287Z,0
2022-09-27T04:24:07.327Z,0
2022-09-27T04:27:07.367Z,0
2022-09-27T04:30:07.408Z,0
2022-09-27T04:33:07.325Z,0
2022-09-27T04:36:07.374Z,0
2022-09-27T04:39:07.304Z,0
2022-09-27T04:42:07.340Z,3
2022-09-27T04:45:07.319Z,3
2022-09-27T04:48:07.292Z,7
2022-09-27T04:51:07.291Z,10
2022-09-27T04:54:07.293Z,17
2022-09-27T04:57:07.247Z,23
2022-09-27T05:00:07.337Z,37
2022-09-27T05:03:07.587Z,47
2022-09-27T05:06:07.296Z,50
2022-09-27T05:09:07.331Z,73
2022-09-27T05:12:07.441Z,110
2022-09-27T05:15:07.309Z,153
2022-09-27T05:18:07.397Z,157
2022-09-27T05:21:07.863Z,200
2022-09-27T05:24:07.407Z,267
2022-09-27T05:27:07.286Z,420
2022-09-27T05:30:07.605Z,463
2022-09-27T05:33:07.278Z,480
2022-09-27T05:36:07.391Z,510
2022-09-27T05:39:07.344Z,437
2022-09-27T05:42:07.357Z,780
2022-09-27T05:45:07.414Z,1030
2022-09-27T05:48:07.390Z,1223
2022-09-27T05:51:07.292Z,1383
2022-09-27T05:54:07.308Z,1593
2022-09-27T05:57:07.409Z,1300
2022-09-27T06:00:07.443Z,1857
2022-09-27T06:03:07.967Z,1637
2022-09-27T06:06:07.335Z,2383
2022-09-27T06:12:07.389Z,2257
2022-09-27T06:15:07.329Z,2810
2022-09-27T06:18:07.379Z,2823
2022-09-27T06:21:07.367Z,3300
2022-09-27T06:24:07.315Z,2980
2022-09-27T06:27:07.288Z,2653
2022-09-27T06:30:07.423Z,2330
2022-09-27T06:33:07.347Z,1953
2022-09-27T06:36:07.550Z,2160
2022-09-27T06:39:07.354Z,2197
2022-09-27T06:42:07.430Z,2520
2022-09-27T06:45:07.342Z,2493
2022-09-27T06:48:07.368Z,3083
2022-09-27T06:51:07.329Z,2510
2022-09-27T06:54:07.316Z,2683
2022-09-27T06:57:09.566Z,3157
2022-09-27T07:00:07.450Z,3157
2022-09-27T07:03:07.317Z,3277
2022-09-27T07:06:07.352Z,3107
2022-09-27T07:09:07.432Z,2777
2022-09-27T07:12:07.375Z,3073
2022-09-27T07:15:07.429Z,3043
2022-09-27T07:18:07.333Z,2350
2022-09-27T07:21:07.506Z,1833
2022-09-27T07:24:07.441Z,2287
2022-09-27T07:27:07.352Z,2550
2022-09-27T07:30:07.474Z,3033
2022-09-27T07:33:07.352Z,3547
2022-09-27T07:36:07.326Z,3790
2022-09-27T07:39:07.366Z,4427
2022-09-27T07:42:07.329Z,3580
2022-09-27T07:45:12.875Z,4140
2022-09-27T07:48:07.287Z,3437
2022-09-27T07:51:07.395Z,3190
2022-09-27T07:54:15.191Z,3133
2022-09-27T07:57:07.363Z,5167
2022-09-27T08:00:07.470Z,9817
2022-09-27T08:03:07.327Z,11373
2022-09-27T08:06:07.470Z,13407
2022-09-27T08:09:07.420Z,13880
2022-09-27T08:12:07.356Z,17463
2022-09-27T08:15:07.345Z,13480
2022-09-27T08:18:07.294Z,11773
2022-09-27T08:21:07.390Z,7083
2022-09-27T08:24:07.352Z,6647
2022-09-27T08:27:12.987Z,6590
2022-09-27T08:30:07.440Z,7553
2022-09-27T08:33:07.475Z,10710
2022-09-27T08:36:07.301Z,10910
2022-09-27T08:39:07.346Z,5533
2022-09-27T08:42:07.407Z,8720
2022-09-27T08:45:10.644Z,5520
2022-09-27T08:48:07.395Z,6600
2022-09-27T08:51:07.339Z,7857
2022-09-27T08:54:07.417Z,7267
2022-09-27T08:57:07.373Z,8010
2022-09-27T09:00:07.402Z,5433
2022-09-27T09:03:07.355Z,8387
2022-09-27T09:06:07.418Z,10520
2022-09-27T09:09:07.347Z,6890
2022-09-27T09:12:07.344Z,7317
2022-09-27T09:15:07.307Z,8910
2022-09-27T09:18:07.452Z,8010
2022-09-27T09:21:07.354Z,9030
2022-09-27T09:24:07.414Z,12310
2022-09-27T09:27:07.338Z,16563
2022-09-27T09:30:07.370Z,24543
2022-09-27T09:33:07.388Z,30440
2022-09-27T09:36:07.392Z,41040
2022-09-27T09:39:07.349Z,36087
2022-09-27T09:42:07.434Z,32573
2022-09-27T09:45:07.321Z,23887
2022-09-27T09:48:07.444Z,26623
2022-09-27T09:51:07.364Z,15470
2022-09-27T09:54:07.301Z,11010
2022-09-27T09:57:07.396Z,12877
2022-09-27T10:00:07.385Z,5260
2022-09-27T10:03:07.368Z,5170
2022-09-27T10:06:07.398Z,4653
2022-09-27T10:09:07.388Z,9267
2022-09-27T10:12:07.361Z,38260
2022-09-27T10:15:07.541Z,20243
2022-09-27T10:18:07.425Z,16937
2022-09-27T10:21:07.353Z,15400
2022-09-27T10:24:07.351Z,18883
2022-09-27T10:27:07.390Z,21167
2022-09-27T10:30:07.442Z,12693
2022-09-27T10:33:07.330Z,15907
2022-09-27T10:36:07.372Z,14223
2022-09-27T10:39:07.458Z,22200
2022-09-27T10:42:07.394Z,12080
2022-09-27T10:45:07.458Z,11953
2022-09-27T10:48:07.376Z,8407
2022-09-27T10:51:07.535Z,8000
2022-09-27T10:54:07.375Z,13543
2022-09-27T10:57:07.366Z,12833
2022-09-27T11:00:07.395Z,12820
2022-09-27T11:03:07.299Z,11397
2022-09-27T11:06:07.284Z,22970
2022-09-27T11:09:07.360Z,19307
2022-09-27T11:12:07.396Z,23013
2022-09-27T11:15:07.423Z,46043
2022-09-27T11:18:07.391Z,40143
2022-09-27T11:21:07.369Z,28317
2022-09-27T11:24:07.550Z,41160
2022-09-27T11:27:07.319Z,49570
2022-09-27T11:30:07.336Z,49293
2022-09-27T11:33:07.327Z,43247
2022-09-27T11:36:07.359Z,39727
2022-09-27T11:39:09.638Z,23777
2022-09-27T11:42:07.401Z,28673
2022-09-27T11:48:08.060Z,27420
2022-09-27T11:51:07.313Z,29540
2022-09-27T11:54:07.370Z,34413
2022-09-27T11:57:07.417Z,43847
2022-09-27T12:00:07.340Z,46147
2022-09-27T12:03:07.610Z,41540
2022-09-27T12:06:14.094Z,62563
2022-09-27T12:09:07.371Z,14567
2022-09-27T12:12:07.324Z,18260
2022-09-27T12:15:14.025Z,27627
2022-09-27T12:18:07.389Z,26107
2022-09-27T12:21:07.419Z,16510
2022-09-27T12:24:07.385Z,20910
2022-09-27T12:27:07.462Z,16703
2022-09-27T12:30:07.473Z,45980
2022-09-27T12:33:07.401Z,27473
2022-09-27T12:36:07.392Z,59210
2022-09-27T12:39:07.316Z,20743
2022-09-27T12:42:07.416Z,19927
2022-09-27T12:45:07.446Z,21460
2022-09-27T12:48:07.387Z,19660
2022-09-27T12:51:07.387Z,18243
2022-09-27T12:54:07.434Z,43147
2022-09-27T12:57:07.386Z,15017
2022-09-27T13:00:07.457Z,12507
2022-09-27T13:03:30.511Z,14253
2022-09-27T13:06:07.353Z,19733
2022-09-27T13:09:07.366Z,24463
2022-09-27T13:12:07.353Z,40003
2022-09-27T13:15:07.407Z,11967
2022-09-27T13:18:07.381Z,12717
2022-09-27T13:21:07.424Z,13200
2022-09-27T13:24:07.330Z,17197
2022-09-27T13:27:07.451Z,15073
2022-09-27T13:30:07.399Z,6567
2022-09-27T13:33:07.330Z,6783
2022-09-27T13:36:07.356Z,12050
2022-09-27T13:39:07.370Z,8497
2022-09-27T13:42:07.406Z,8670
2022-09-27T13:45:07.362Z,12837
2022-09-27T13:48:07.297Z,18223
2022-09-27T13:51:07.369Z,14370
2022-09-27T13:54:13.122Z,17853
2022-09-27T13:57:07.287Z,18857
2022-09-27T14:00:07.404Z,17107
2022-09-27T14:03:07.319Z,23860
2022-09-27T14:06:13.303Z,18350
2022-09-27T14:09:07.399Z,14710
2022-09-27T14:12:07.474Z,22520
2022-09-27T14:15:07.642Z,24287
2022-09-27T14:18:07.319Z,38690
2022-09-27T14:21:07.320Z,36390
2022-09-27T14:24:07.422Z,34650
2022-09-27T14:27:07.431Z,37433
2022-09-27T14:30:07.486Z,35740
2022-09-27T14:33:07.389Z,34387
2022-09-27T14:36:07.348Z,31917
2022-09-27T14:39:07.390Z,34053
2022-09-27T14:42:07.341Z,38397
2022-09-27T14:45:07.509Z,32247
2022-09-27T14:48:07.302Z,9777
2022-09-27T14:51:18.826Z,4260
2022-09-27T14:54:07.347Z,1727
2022-09-27T14:57:07.326Z,1417
2022-09-27T15:00:07.359Z,1617
2022-09-27T15:03:08.133Z,1917
2022-09-27T15:06:07.404Z,2113
2022-09-27T15:09:07.596Z,1590
2022-09-27T15:12:07.523Z,1460
2022-09-27T15:15:07.319Z,1187
2022-09-27T15:18:07.386Z,750
2022-09-27T15:21:07.324Z,517
2022-09-27T15:24:07.465Z,423
2022-09-27T15:27:07.376Z,443
2022-09-27T15:30:07.584Z,590
2022-09-27T15:33:07.365Z,1103
2022-09-27T15:36:07.395Z,1227
2022-09-27T15:39:10.858Z,1427
2022-09-27T15:42:07.347Z,1687
2022-09-27T15:45:07.374Z,1853
2022-09-27T15:48:07.472Z,2157
2022-09-27T15:51:07.334Z,2230
2022-09-27T15:54:07.382Z,2560
2022-09-27T15:57:07.303Z,2813
2022-09-27T16:00:07.472Z,2677
2022-09-27T16:03:07.391Z,1763
2022-09-27T16:06:07.355Z,887
2022-09-27T16:09:07.479Z,730
2022-09-27T16:12:07.403Z,423
2022-09-27T16:15:07.386Z,163
2022-09-27T16:18:07.416Z,100
2022-09-27T16:21:07.361Z,270
2022-09-27T16:24:13.069Z,547
2022-09-27T16:27:07.409Z,537
2022-09-27T16:30:07.435Z,740
2022-09-27T16:33:07.331Z,713
2022-09-27T16:36:07.331Z,523
2022-09-27T16:39:07.389Z,407
2022-09-27T16:42:07.382Z,357
2022-09-27T16:45:19.113Z,297
2022-09-27T16:48:07.321Z,233
2022-09-27T16:51:07.415Z,180
2022-09-27T16:54:07.310Z,140
2022-09-27T16:57:07.298Z,110
2022-09-27T17:00:07.499Z,97
2022-09-27T17:03:07.299Z,83
2022-09-27T17:06:07.379Z,57
2022-09-27T17:09:07.329Z,37
2022-09-27T17:12:12.184Z,33
2022-09-27T17:15:07.373Z,27
2022-09-27T17:18:07.381Z,23
2022-09-27T17:21:07.312Z,20
2022-09-27T17:24:07.305Z,17
2022-09-27T17:27:07.281Z,13
2022-09-27T17:30:07.356Z,7
2022-09-27T17:33:07.341Z,3
2022-09-27T17:36:07.354Z,3
2022-09-27T17:39:07.317Z,0
2022-09-27T17:42:07.306Z,0
2022-09-27T17:45:07.325Z,0
2022-09-27T17:48:09.561Z,0
2022-09-27T17:51:07.397Z,0
2022-09-27T17:54:07.379Z,0
2022-09-27T17:57:07.328Z,0
2022-09-27T18:00:07.441Z,0
2022-09-27T18:03:07.745Z,0
2022-09-27T18:06:07.331Z,0
2022-09-27T18:09:07.373Z,0
2022-09-27T18:12:07.296Z,0
2022-09-27T18:15:07.314Z,0
2022-09-27T18:18:07.335Z,0
2022-09-27T18:21:07.406Z,0
2022-09-27T18:24:07.401Z,0
2022-09-27T18:27:07.442Z,0
2022-09-27T18:30:07.332Z,0
2022-09-27T18:33:07.126Z,0
2022-09-27T18:36:07.167Z,0
2022-09-27T18:39:07.327Z,0
2022-09-27T18:42:07.326Z,0
2022-09-27T18:45:07.303Z,0
2022-09-27T18:48:07.402Z,0
2022-09-27T18:51:07.319Z,0
2022-09-27T18:54:07.373Z,0
2022-09-27T18:57:07.419Z,0
2022-09-27T19:00:07.327Z,0
2022-09-27T19:03:07.401Z,0
2022-09-27T19:06:07.344Z,0
2022-09-27T19:09:07.412Z,0
2022-09-27T19:12:07.310Z,0
2022-09-27T19:15:07.289Z,0
2022-09-27T19:18:07.344Z,0
2022-09-27T19:21:12.599Z,0
2022-09-27T19:24:07.337Z,0
2022-09-27T19:27:07.320Z,0
2022-09-27T19:30:07.486Z,0
2022-09-27T19:33:07.301Z,0
2022-09-27T19:36:07.310Z,0
2022-09-27T19:39:07.315Z,0
2022-09-27T19:42:07.255Z,0
2022-09-27T19:45:13.595Z,0
2022-09-27T19:48:07.292Z,0
2022-09-27T19:51:07.357Z,0
2022-09-27T19:54:07.369Z,0
2022-09-27T19:57:07.399Z,0
2022-09-27T20:00:07.351Z,0
2022-09-27T20:03:07.748Z,0
2022-09-27T20:06:07.327Z,0
2022-09-27T20:09:07.485Z,0
2022-09-27T20:12:07.290Z,0
2022-09-27T20:15:07.306Z,0
2022-09-27T20:18:11.705Z,0
2022-09-27T20:21:07.380Z,0
2022-09-27T20:24:07.300Z,0
2022-09-27T20:27:07.369Z,0
2022-09-27T20:30:07.365Z,0
2022-09-27T20:33:07.294Z,0
2022-09-27T20:36:07.322Z,0
2022-09-27T20:39:10.106Z,0
2022-09-27T20:42:07.307Z,0
2022-09-27T20:45:07.473Z,0
2022-09-27T20:48:07.337Z,0
2022-09-27T20:51:11.768Z,0
2022-09-27T20:54:07.401Z,0
2022-09-27T20:57:07.290Z,0
2022-09-27T21:00:07.406Z,0
2022-09-27T21:03:07.278Z,0
2022-09-27T21:06:07.330Z,0
2022-09-27T21:09:07.377Z,0
2022-09-27T21:12:07.288Z,0
2022-09-27T21:15:07.320Z,0
2022-09-27T21:18:07.309Z,0
2022-09-27T21:21:07.338Z,0
2022-09-27T21:24:07.307Z,0
2022-09-27T21:27:07.328Z,0
2022-09-27T21:30:07.381Z,0
2022-09-27T21:33:07.415Z,0
2022-09-27T21:36:07.349Z,0
2022-09-27T21:39:07.333Z,0
2022-09-27T21:42:07.341Z,0
2022-09-27T21:45:07.295Z,0
2022-09-27T21:48:07.302Z,0
2022-09-27T21:51:07.321Z,0
2022-09-27T21:54:07.330Z,0
2022-09-27T21:57:07.305Z,0
2022-09-27T22:00:07.593Z,0
2022-09-27T22:03:07.339Z,0
2022-09-27T22:06:07.341Z,0
2022-09-27T22:09:07.309Z,0
2022-09-27T22:12:07.268Z,0
2022-09-27T22:15:07.437Z,0
2022-09-27T22:18:07.324Z,0
2022-09-27T22:21:07.378Z,0
2022-09-27T22:24:14.283Z,0
2022-09-27T22:27:07.303Z,0
2022-09-27T22:30:07.473Z,0
2022-09-27T22:33:07.292Z,0
2022-09-27T22:36:07.431Z,0
2022-09-27T22:39:07.407Z,0
2022-09-27T22:42:07.310Z,0
2022-09-27T22:45:07.391Z,0
2022-09-27T22:48:07.267Z,0
2022-09-27T22:51:07.336Z,0
2022-09-27T22:54:07.400Z,0
2022-09-27T22:57:07.338Z,0
2022-09-27T23:00:07.563Z,0
2022-09-27T23:03:07.290Z,0
2022-09-27T23:06:07.305Z,0
2022-09-27T23:09:07.357Z,0
2022-09-27T23:12:07.399Z,0
2022-09-27T23:15:07.346Z,0
2022-09-27T23:18:07.322Z,0
2022-09-27T23:21:07.325Z,0
2022-09-27T23:24:07.359Z,0
2022-09-27T23:27:07.309Z,0
2022-09-27T23:30:07.439Z,0
2022-09-27T23:33:07.278Z,0
2022-09-27T23:36:07.435Z,0
2022-09-27T23:39:07.275Z,0
2022-09-27T23:42:07.347Z,0
2022-09-27T23:45:07.439Z,0
2022-09-27T23:48:07.328Z,0
2022-09-27T23:51:07.324Z,0
2022-09-27T23:54:07.648Z,0
2022-09-27T23:57:07.258Z,0
